sensor_id;sensor_type;location;lat;lon;timestamp;temperature;humidity
51579;DHT22;47998;53.242;6.386;2022-08-19T00:01:45;13.50;99.90
51579;DHT22;47998;53.242;6.386;2022-08-19T00:04:13;13.10;99.90
51579;DHT22;47998;53.242;6.386;2022-08-19T00:06:42;13.00;99.90
51579;DHT22;47998;53.242;6.386;2022-08-19T00:09:10;12.80;99.90
51579;DHT22;47998;53.242;6.386;2022-08-19T00:11:37;12.90;99.90
51579;DHT22;47998;53.242;6.386;2022-08-19T00:14:04;12.90;99.90
51579;DHT22;47998;53.242;6.386;2022-08-19T00:16:30;13.00;99.90
51579;DHT22;47998;53.242;6.386;2022-08-19T00:18:56;12.80;99.90
51579;DHT22;47998;53.242;6.386;2022-08-19T00:21:24;12.80;1.00
51579;DHT22;47998;53.242;6.386;2022-08-19T00:23:50;12.80;1.00
51579;DHT22;47998;53.242;6.386;2022-08-19T00:26:16;12.70;1.00
51579;DHT22;47998;53.242;6.386;2022-08-19T00:28:41;12.60;1.00
51579;DHT22;47998;53.242;6.386;2022-08-19T00:31:08;12.50;1.00
51579;DHT22;47998;53.242;6.386;2022-08-19T00:33:34;12.50;1.00
51579;DHT22;47998;53.242;6.386;2022-08-19T00:36:01;12.50;1.00
51579;DHT22;47998;53.242;6.386;2022-08-19T00:38:27;12.50;1.00
51579;DHT22;47998;53.242;6.386;2022-08-19T00:40:54;12.50;1.00
51579;DHT22;47998;53.242;6.386;2022-08-19T00:43:22;12.40;1.00
51579;DHT22;47998;53.242;6.386;2022-08-19T00:45:48;12.40;1.00
51579;DHT22;47998;53.242;6.386;2022-08-19T00:48:16;12.50;1.00
51579;DHT22;47998;53.242;6.386;2022-08-19T00:50:43;12.50;1.00
51579;DHT22;47998;53.242;6.386;2022-08-19T00:53:14;12.60;1.00
51579;DHT22;47998;53.242;6.386;2022-08-19T00:55:44;12.60;1.00
51579;DHT22;47998;53.242;6.386;2022-08-19T00:58:14;12.60;1.00
51579;DHT22;47998;53.242;6.386;2022-08-19T01:00:41;12.40;1.00
51579;DHT22;47998;53.242;6.386;2022-08-19T01:03:14;12.40;1.00
51579;DHT22;47998;53.242;6.386;2022-08-19T01:05:42;12.40;1.00
51579;DHT22;47998;53.242;6.386;2022-08-19T01:08:08;12.50;1.00
51579;DHT22;47998;53.242;6.386;2022-08-19T01:10:42;12.50;1.20
51579;DHT22;47998;53.242;6.386;2022-08-19T01:13:08;12.50;56.80
51579;DHT22;47998;53.242;6.386;2022-08-19T01:15:52;12.50;77.00
51579;DHT22;47998;53.242;6.386;2022-08-19T01:18:20;12.50;45.90
51579;DHT22;47998;53.242;6.386;2022-08-19T01:20:47;12.40;36.60
51579;DHT22;47998;53.242;6.386;2022-08-19T01:23:13;12.40;41.70
51579;DHT22;47998;53.242;6.386;2022-08-19T01:25:46;12.50;41.90
51579;DHT22;47998;53.242;6.386;2022-08-19T01:28:18;12.40;58.90
51579;DHT22;47998;53.242;6.386;2022-08-19T01:30:45;12.40;93.80
51579;DHT22;47998;53.242;6.386;2022-08-19T01:33:12;12.60;99.90
51579;DHT22;47998;53.242;6.386;2022-08-19T01:35:38;12.50;99.90
51579;DHT22;47998;53.242;6.386;2022-08-19T01:38:07;12.40;99.90
51579;DHT22;47998;53.242;6.386;2022-08-19T01:40:37;12.40;99.90
51579;DHT22;47998;53.242;6.386;2022-08-19T01:43:04;12.50;99.90
51579;DHT22;47998;53.242;6.386;2022-08-19T01:45:32;12.60;99.90
51579;DHT22;47998;53.242;6.386;2022-08-19T01:48:01;12.40;99.90
51579;DHT22;47998;53.242;6.386;2022-08-19T01:50:28;12.50;99.90
51579;DHT22;47998;53.242;6.386;2022-08-19T01:52:54;12.50;99.90
51579;DHT22;47998;53.242;6.386;2022-08-19T01:55:21;12.30;99.90
51579;DHT22;47998;53.242;6.386;2022-08-19T01:57:52;12.20;99.90
51579;DHT22;47998;53.242;6.386;2022-08-19T02:00:21;12.20;99.90
51579;DHT22;47998;53.242;6.386;2022-08-19T02:02:48;12.10;99.90
51579;DHT22;47998;53.242;6.386;2022-08-19T02:05:14;12.20;99.90
51579;DHT22;47998;53.242;6.386;2022-08-19T02:07:41;12.20;99.90
51579;DHT22;47998;53.242;6.386;2022-08-19T02:10:11;12.10;99.90
51579;DHT22;47998;53.242;6.386;2022-08-19T02:12:38;12.20;99.90
51579;DHT22;47998;53.242;6.386;2022-08-19T02:15:04;12.10;99.90
51579;DHT22;47998;53.242;6.386;2022-08-19T02:17:30;12.10;99.90
51579;DHT22;47998;53.242;6.386;2022-08-19T02:19:56;12.00;99.90
51579;DHT22;47998;53.242;6.386;2022-08-19T02:22:23;12.20;99.90
51579;DHT22;47998;53.242;6.386;2022-08-19T02:24:49;12.10;99.90
51579;DHT22;47998;53.242;6.386;2022-08-19T02:27:15;12.00;99.90
51579;DHT22;47998;53.242;6.386;2022-08-19T02:29:41;12.10;99.90
51579;DHT22;47998;53.242;6.386;2022-08-19T02:32:07;12.00;99.90
51579;DHT22;47998;53.242;6.386;2022-08-19T02:34:34;12.20;99.90
51579;DHT22;47998;53.242;6.386;2022-08-19T02:37:00;12.30;99.90
51579;DHT22;47998;53.242;6.386;2022-08-19T02:39:25;12.20;99.90
51579;DHT22;47998;53.242;6.386;2022-08-19T02:41:52;12.30;99.90
51579;DHT22;47998;53.242;6.386;2022-08-19T02:44:18;12.20;99.90
51579;DHT22;47998;53.242;6.386;2022-08-19T02:46:46;12.20;99.90
51579;DHT22;47998;53.242;6.386;2022-08-19T02:49:12;12.40;99.90
51579;DHT22;47998;53.242;6.386;2022-08-19T02:51:44;12.40;99.90
51579;DHT22;47998;53.242;6.386;2022-08-19T02:54:11;12.20;99.90
51579;DHT22;47998;53.242;6.386;2022-08-19T02:56:39;12.20;99.90
51579;DHT22;47998;53.242;6.386;2022-08-19T02:59:06;12.20;99.90
51579;DHT22;47998;53.242;6.386;2022-08-19T03:01:35;12.20;99.90
51579;DHT22;47998;53.242;6.386;2022-08-19T03:04:03;12.30;99.90
51579;DHT22;47998;53.242;6.386;2022-08-19T03:06:29;12.30;99.90
51579;DHT22;47998;53.242;6.386;2022-08-19T03:08:56;12.30;99.90
51579;DHT22;47998;53.242;6.386;2022-08-19T03:11:26;12.20;99.90
51579;DHT22;47998;53.242;6.386;2022-08-19T03:13:52;12.30;99.90
51579;DHT22;47998;53.242;6.386;2022-08-19T03:16:21;12.30;99.90
51579;DHT22;47998;53.242;6.386;2022-08-19T03:18:47;12.40;99.90
51579;DHT22;47998;53.242;6.386;2022-08-19T03:21:21;12.50;99.90
51579;DHT22;47998;53.242;6.386;2022-08-19T03:23:47;12.40;99.90
51579;DHT22;47998;53.242;6.386;2022-08-19T03:26:14;12.60;99.90
51579;DHT22;47998;53.242;6.386;2022-08-19T03:28:43;12.60;99.90
51579;DHT22;47998;53.242;6.386;2022-08-19T03:31:13;12.40;99.90
51579;DHT22;47998;53.242;6.386;2022-08-19T03:33:39;12.50;99.90
51579;DHT22;47998;53.242;6.386;2022-08-19T03:36:18;12.50;99.90
51579;DHT22;47998;53.242;6.386;2022-08-19T03:38:46;12.40;99.90
51579;DHT22;47998;53.242;6.386;2022-08-19T03:41:15;12.40;99.90
51579;DHT22;47998;53.242;6.386;2022-08-19T03:43:42;12.30;99.90
51579;DHT22;47998;53.242;6.386;2022-08-19T03:46:11;12.40;99.90
51579;DHT22;47998;53.242;6.386;2022-08-19T03:48:39;12.30;99.90
51579;DHT22;47998;53.242;6.386;2022-08-19T03:51:06;12.30;99.90
51579;DHT22;47998;53.242;6.386;2022-08-19T03:53:33;12.30;99.90
51579;DHT22;47998;53.242;6.386;2022-08-19T03:56:00;12.30;99.90
51579;DHT22;47998;53.242;6.386;2022-08-19T03:58:28;12.40;99.90
51579;DHT22;47998;53.242;6.386;2022-08-19T04:00:55;12.50;99.90
51579;DHT22;47998;53.242;6.386;2022-08-19T04:03:23;12.30;99.90
51579;DHT22;47998;53.242;6.386;2022-08-19T04:05:48;12.60;99.90
51579;DHT22;47998;53.242;6.386;2022-08-19T04:08:14;12.60;99.90
51579;DHT22;47998;53.242;6.386;2022-08-19T04:10:46;12.70;99.90
51579;DHT22;47998;53.242;6.386;2022-08-19T04:13:14;12.50;99.90
51579;DHT22;47998;53.242;6.386;2022-08-19T04:15:41;12.60;99.90
51579;DHT22;47998;53.242;6.386;2022-08-19T04:18:11;12.50;99.90
51579;DHT22;47998;53.242;6.386;2022-08-19T04:20:45;12.60;99.90
51579;DHT22;47998;53.242;6.386;2022-08-19T04:23:12;12.70;99.90
51579;DHT22;47998;53.242;6.386;2022-08-19T04:25:41;12.60;99.90
51579;DHT22;47998;53.242;6.386;2022-08-19T04:28:08;12.60;99.90
51579;DHT22;47998;53.242;6.386;2022-08-19T04:31:01;12.40;99.90
51579;DHT22;47998;53.242;6.386;2022-08-19T04:33:27;12.70;99.90
51579;DHT22;47998;53.242;6.386;2022-08-19T04:35:53;12.70;99.90
51579;DHT22;47998;53.242;6.386;2022-08-19T04:38:21;12.70;99.90
51579;DHT22;47998;53.242;6.386;2022-08-19T04:40:49;12.40;99.90
51579;DHT22;47998;53.242;6.386;2022-08-19T04:43:36;12.40;99.90
51579;DHT22;47998;53.242;6.386;2022-08-19T04:46:09;12.40;99.90
51579;DHT22;47998;53.242;6.386;2022-08-19T04:48:37;12.60;99.90
51579;DHT22;47998;53.242;6.386;2022-08-19T04:51:07;12.60;99.90
51579;DHT22;47998;53.242;6.386;2022-08-19T04:53:36;12.40;99.90
51579;DHT22;47998;53.242;6.386;2022-08-19T04:56:06;12.80;99.90
51579;DHT22;47998;53.242;6.386;2022-08-19T04:58:33;12.70;99.90
51579;DHT22;47998;53.242;6.386;2022-08-19T05:00:59;12.80;99.90
51579;DHT22;47998;53.242;6.386;2022-08-19T05:03:27;12.60;99.90
51579;DHT22;47998;53.242;6.386;2022-08-19T05:06:09;13.00;99.90
51579;DHT22;47998;53.242;6.386;2022-08-19T05:08:37;13.10;99.90
51579;DHT22;47998;53.242;6.386;2022-08-19T05:11:32;12.90;99.90
51579;DHT22;47998;53.242;6.386;2022-08-19T05:13:58;12.80;99.90
51579;DHT22;47998;53.242;6.386;2022-08-19T05:16:26;12.90;99.90
51579;DHT22;47998;53.242;6.386;2022-08-19T05:18:52;13.20;99.90
51579;DHT22;47998;53.242;6.386;2022-08-19T05:21:37;13.00;99.90
51579;DHT22;47998;53.242;6.386;2022-08-19T05:24:22;13.10;99.90
51579;DHT22;47998;53.242;6.386;2022-08-19T05:26:49;13.50;99.90
51579;DHT22;47998;53.242;6.386;2022-08-19T05:29:19;13.60;99.90
51579;DHT22;47998;53.242;6.386;2022-08-19T05:31:46;13.50;99.90
51579;DHT22;47998;53.242;6.386;2022-08-19T05:34:12;13.50;99.90
51579;DHT22;47998;53.242;6.386;2022-08-19T05:36:41;13.70;99.90
51579;DHT22;47998;53.242;6.386;2022-08-19T05:39:10;13.70;99.90
51579;DHT22;47998;53.242;6.386;2022-08-19T05:41:40;13.50;99.90
51579;DHT22;47998;53.242;6.386;2022-08-19T05:44:06;13.80;99.90
51579;DHT22;47998;53.242;6.386;2022-08-19T05:46:35;13.60;99.90
51579;DHT22;47998;53.242;6.386;2022-08-19T05:49:06;13.80;99.90
51579;DHT22;47998;53.242;6.386;2022-08-19T05:51:33;14.20;99.90
51579;DHT22;47998;53.242;6.386;2022-08-19T05:54:01;13.90;99.90
51579;DHT22;47998;53.242;6.386;2022-08-19T05:56:27;14.20;99.90
51579;DHT22;47998;53.242;6.386;2022-08-19T05:58:52;14.40;99.90
51579;DHT22;47998;53.242;6.386;2022-08-19T06:01:19;14.50;99.90
51579;DHT22;47998;53.242;6.386;2022-08-19T06:03:46;14.70;99.90
51579;DHT22;47998;53.242;6.386;2022-08-19T06:06:15;14.40;99.90
51579;DHT22;47998;53.242;6.386;2022-08-19T06:08:40;15.00;99.90
51579;DHT22;47998;53.242;6.386;2022-08-19T06:11:24;14.80;99.90
51579;DHT22;47998;53.242;6.386;2022-08-19T06:13:52;14.80;99.90
51579;DHT22;47998;53.242;6.386;2022-08-19T06:16:22;15.50;99.90
51579;DHT22;47998;53.242;6.386;2022-08-19T06:18:50;15.40;99.90
51579;DHT22;47998;53.242;6.386;2022-08-19T06:21:19;15.20;99.90
51579;DHT22;47998;53.242;6.386;2022-08-19T06:23:45;15.80;99.90
51579;DHT22;47998;53.242;6.386;2022-08-19T06:26:13;16.00;99.90
51579;DHT22;47998;53.242;6.386;2022-08-19T06:28:39;15.80;99.90
51579;DHT22;47998;53.242;6.386;2022-08-19T06:31:19;16.30;99.90
51579;DHT22;47998;53.242;6.386;2022-08-19T06:33:49;16.30;99.90
51579;DHT22;47998;53.242;6.386;2022-08-19T06:36:24;16.60;99.90
51579;DHT22;47998;53.242;6.386;2022-08-19T06:39:05;16.70;99.90
51579;DHT22;47998;53.242;6.386;2022-08-19T06:41:35;16.80;99.90
51579;DHT22;47998;53.242;6.386;2022-08-19T06:44:04;16.90;99.90
51579;DHT22;47998;53.242;6.386;2022-08-19T06:46:30;17.00;99.90
51579;DHT22;47998;53.242;6.386;2022-08-19T06:48:56;16.80;99.90
51579;DHT22;47998;53.242;6.386;2022-08-19T06:51:23;17.20;99.90
51579;DHT22;47998;53.242;6.386;2022-08-19T06:53:51;17.30;99.90
51579;DHT22;47998;53.242;6.386;2022-08-19T06:56:21;17.50;99.90
51579;DHT22;47998;53.242;6.386;2022-08-19T06:58:48;17.40;99.90
51579;DHT22;47998;53.242;6.386;2022-08-19T07:01:19;17.60;99.90
51579;DHT22;47998;53.242;6.386;2022-08-19T07:03:45;17.60;99.90
51579;DHT22;47998;53.242;6.386;2022-08-19T07:06:16;17.80;99.90
51579;DHT22;47998;53.242;6.386;2022-08-19T07:08:46;17.90;99.90
51579;DHT22;47998;53.242;6.386;2022-08-19T07:11:16;18.00;99.90
51579;DHT22;47998;53.242;6.386;2022-08-19T07:13:43;18.30;99.90
51579;DHT22;47998;53.242;6.386;2022-08-19T07:16:14;18.40;62.00
51579;DHT22;47998;53.242;6.386;2022-08-19T07:18:40;18.30;1.00
51579;DHT22;47998;53.242;6.386;2022-08-19T07:21:18;18.50;1.00
51579;DHT22;47998;53.242;6.386;2022-08-19T07:23:45;18.60;99.90
51579;DHT22;47998;53.242;6.386;2022-08-19T07:26:16;18.70;99.90
51579;DHT22;47998;53.242;6.386;2022-08-19T07:28:43;18.90;99.90
51579;DHT22;47998;53.242;6.386;2022-08-19T07:31:14;18.90;99.90
51579;DHT22;47998;53.242;6.386;2022-08-19T07:33:42;19.20;99.90
51579;DHT22;47998;53.242;6.386;2022-08-19T07:36:10;19.30;99.90
51579;DHT22;47998;53.242;6.386;2022-08-19T07:38:37;19.40;99.90
51579;DHT22;47998;53.242;6.386;2022-08-19T07:41:08;19.40;99.90
51579;DHT22;47998;53.242;6.386;2022-08-19T07:43:37;19.60;53.20
51579;DHT22;47998;53.242;6.386;2022-08-19T07:46:03;19.70;1.00
51579;DHT22;47998;53.242;6.386;2022-08-19T07:48:29;19.80;1.00
51579;DHT22;47998;53.242;6.386;2022-08-19T07:50:57;20.00;1.00
51579;DHT22;47998;53.242;6.386;2022-08-19T07:53:24;20.20;99.90
51579;DHT22;47998;53.242;6.386;2022-08-19T07:55:50;20.30;99.90
51579;DHT22;47998;53.242;6.386;2022-08-19T07:58:19;20.50;99.90
51579;DHT22;47998;53.242;6.386;2022-08-19T08:00:48;20.50;99.90
51579;DHT22;47998;53.242;6.386;2022-08-19T08:03:16;20.70;75.90
51579;DHT22;47998;53.242;6.386;2022-08-19T08:05:42;20.80;1.00
51579;DHT22;47998;53.242;6.386;2022-08-19T08:08:27;21.00;1.00
51579;DHT22;47998;53.242;6.386;2022-08-19T08:11:12;21.00;99.90
51579;DHT22;47998;53.242;6.386;2022-08-19T08:13:38;21.20;99.90
51579;DHT22;47998;53.242;6.386;2022-08-19T08:16:04;21.20;1.00
51579;DHT22;47998;53.242;6.386;2022-08-19T08:18:33;21.30;1.00
51579;DHT22;47998;53.242;6.386;2022-08-19T08:20:59;21.30;1.00
51579;DHT22;47998;53.242;6.386;2022-08-19T08:23:25;21.50;1.00
51579;DHT22;47998;53.242;6.386;2022-08-19T08:25:53;21.50;99.90
51579;DHT22;47998;53.242;6.386;2022-08-19T08:28:20;21.50;99.90
51579;DHT22;47998;53.242;6.386;2022-08-19T08:30:48;21.50;99.90
51579;DHT22;47998;53.242;6.386;2022-08-19T08:33:18;21.60;99.90
51579;DHT22;47998;53.242;6.386;2022-08-19T08:35:44;21.70;99.90
51579;DHT22;47998;53.242;6.386;2022-08-19T08:38:11;21.70;69.20
51579;DHT22;47998;53.242;6.386;2022-08-19T08:40:47;21.80;99.90
51579;DHT22;47998;53.242;6.386;2022-08-19T08:43:34;21.90;40.10
51579;DHT22;47998;53.242;6.386;2022-08-19T08:46:04;22.00;99.30
51579;DHT22;47998;53.242;6.386;2022-08-19T08:49:09;22.20;99.90
51579;DHT22;47998;53.242;6.386;2022-08-19T08:51:44;22.30;1.00
51579;DHT22;47998;53.242;6.386;2022-08-19T08:54:14;22.40;99.90
51579;DHT22;47998;53.242;6.386;2022-08-19T08:56:44;22.40;16.80
51579;DHT22;47998;53.242;6.386;2022-08-19T08:59:19;22.40;1.00
51579;DHT22;47998;53.242;6.386;2022-08-19T09:01:45;22.50;1.00
51579;DHT22;47998;53.242;6.386;2022-08-19T09:04:12;22.50;99.90
51579;DHT22;47998;53.242;6.386;2022-08-19T09:09:35;23.10;12.00
51579;DHT22;47998;53.242;6.386;2022-08-19T09:14:55;24.50;1.00
51579;DHT22;47998;53.242;6.386;2022-08-19T09:17:28;24.70;99.90
51579;DHT22;47998;53.242;6.386;2022-08-19T09:22:22;25.50;1.00
51579;DHT22;47998;53.242;6.386;2022-08-19T09:24:51;25.60;99.90
51579;DHT22;47998;53.242;6.386;2022-08-19T09:27:21;25.60;99.90
51579;DHT22;47998;53.242;6.386;2022-08-19T09:29:49;25.90;99.90
51579;DHT22;47998;53.242;6.386;2022-08-19T09:32:15;26.40;99.90
51579;DHT22;47998;53.242;6.386;2022-08-19T09:34:42;26.70;99.90
51579;DHT22;47998;53.242;6.386;2022-08-19T09:37:08;27.00;1.00
51579;DHT22;47998;53.242;6.386;2022-08-19T09:39:34;26.70;99.90
51579;DHT22;47998;53.242;6.386;2022-08-19T09:42:00;26.50;99.90
51579;DHT22;47998;53.242;6.386;2022-08-19T09:44:26;26.20;99.90
51579;DHT22;47998;53.242;6.386;2022-08-19T09:46:51;26.20;1.00
51579;DHT22;47998;53.242;6.386;2022-08-19T09:49:20;26.10;1.00
51579;DHT22;47998;53.242;6.386;2022-08-19T09:51:50;25.80;1.00
51579;DHT22;47998;53.242;6.386;2022-08-19T09:54:17;25.90;1.00
51579;DHT22;47998;53.242;6.386;2022-08-19T09:56:43;25.90;1.00
51579;DHT22;47998;53.242;6.386;2022-08-19T09:59:10;26.10;1.00
51579;DHT22;47998;53.242;6.386;2022-08-19T10:01:37;26.10;1.00
51579;DHT22;47998;53.242;6.386;2022-08-19T10:04:03;26.10;99.90
51579;DHT22;47998;53.242;6.386;2022-08-19T10:06:37;26.30;1.00
51579;DHT22;47998;53.242;6.386;2022-08-19T10:09:05;26.40;1.00
51579;DHT22;47998;53.242;6.386;2022-08-19T10:11:33;27.00;1.00
51579;DHT22;47998;53.242;6.386;2022-08-19T10:14:00;27.20;99.90
51579;DHT22;47998;53.242;6.386;2022-08-19T10:16:26;27.50;99.90
51579;DHT22;47998;53.242;6.386;2022-08-19T10:18:52;27.30;99.90
51579;DHT22;47998;53.242;6.386;2022-08-19T10:21:21;27.10;99.90
51579;DHT22;47998;53.242;6.386;2022-08-19T10:23:49;26.90;99.90
51579;DHT22;47998;53.242;6.386;2022-08-19T10:26:21;26.80;99.90
51579;DHT22;47998;53.242;6.386;2022-08-19T10:28:48;26.70;99.90
51579;DHT22;47998;53.242;6.386;2022-08-19T10:31:18;26.80;99.90
51579;DHT22;47998;53.242;6.386;2022-08-19T10:33:46;26.90;99.90
51579;DHT22;47998;53.242;6.386;2022-08-19T10:36:24;26.90;99.90
51579;DHT22;47998;53.242;6.386;2022-08-19T10:38:51;27.00;1.00
51579;DHT22;47998;53.242;6.386;2022-08-19T10:41:20;27.20;99.90
51579;DHT22;47998;53.242;6.386;2022-08-19T10:43:47;27.30;99.90
51579;DHT22;47998;53.242;6.386;2022-08-19T10:46:16;27.40;99.90
51579;DHT22;47998;53.242;6.386;2022-08-19T10:48:43;27.10;99.90
51579;DHT22;47998;53.242;6.386;2022-08-19T10:51:10;26.70;99.90
51579;DHT22;47998;53.242;6.386;2022-08-19T10:53:54;26.30;1.00
51579;DHT22;47998;53.242;6.386;2022-08-19T10:56:21;25.90;1.00
51579;DHT22;47998;53.242;6.386;2022-08-19T10:59:06;26.30;1.00
51579;DHT22;47998;53.242;6.386;2022-08-19T11:01:33;26.90;99.90
51579;DHT22;47998;53.242;6.386;2022-08-19T11:04:00;26.80;99.90
51579;DHT22;47998;53.242;6.386;2022-08-19T11:06:27;26.80;99.90
51579;DHT22;47998;53.242;6.386;2022-08-19T11:08:55;27.20;99.90
51579;DHT22;47998;53.242;6.386;2022-08-19T11:11:21;27.50;99.90
51579;DHT22;47998;53.242;6.386;2022-08-19T11:13:48;27.40;99.90
51579;DHT22;47998;53.242;6.386;2022-08-19T11:16:18;26.90;99.90
51579;DHT22;47998;53.242;6.386;2022-08-19T11:18:46;27.10;99.90
51579;DHT22;47998;53.242;6.386;2022-08-19T11:21:39;27.20;99.90
51579;DHT22;47998;53.242;6.386;2022-08-19T11:24:08;27.30;99.90
51579;DHT22;47998;53.242;6.386;2022-08-19T11:26:35;27.10;99.90
51579;DHT22;47998;53.242;6.386;2022-08-19T11:29:03;27.00;99.90
51579;DHT22;47998;53.242;6.386;2022-08-19T11:31:31;27.50;99.90
51579;DHT22;47998;53.242;6.386;2022-08-19T11:33:59;27.90;99.90
51579;DHT22;47998;53.242;6.386;2022-08-19T11:36:26;27.70;6.20
51579;DHT22;47998;53.242;6.386;2022-08-19T11:38:55;27.30;70.00
51579;DHT22;47998;53.242;6.386;2022-08-19T11:41:22;27.10;99.90
51579;DHT22;47998;53.242;6.386;2022-08-19T11:43:49;26.60;99.90
51579;DHT22;47998;53.242;6.386;2022-08-19T11:46:16;26.40;99.90
51579;DHT22;47998;53.242;6.386;2022-08-19T11:48:42;26.80;99.90
51579;DHT22;47998;53.242;6.386;2022-08-19T11:51:14;27.40;99.90
51579;DHT22;47998;53.242;6.386;2022-08-19T11:53:40;28.00;99.90
51579;DHT22;47998;53.242;6.386;2022-08-19T11:56:08;27.80;99.90
51579;DHT22;47998;53.242;6.386;2022-08-19T11:58:34;27.50;99.90
51579;DHT22;47998;53.242;6.386;2022-08-19T12:01:00;27.10;99.90
51579;DHT22;47998;53.242;6.386;2022-08-19T12:03:26;26.70;99.90
51579;DHT22;47998;53.242;6.386;2022-08-19T12:05:51;26.50;99.90
51579;DHT22;47998;53.242;6.386;2022-08-19T12:08:17;26.90;99.90
51579;DHT22;47998;53.242;6.386;2022-08-19T12:10:44;27.10;99.90
51579;DHT22;47998;53.242;6.386;2022-08-19T12:13:11;27.30;99.90
51579;DHT22;47998;53.242;6.386;2022-08-19T12:15:40;27.20;99.90
51579;DHT22;47998;53.242;6.386;2022-08-19T12:18:08;26.90;99.90
51579;DHT22;47998;53.242;6.386;2022-08-19T12:20:40;26.80;99.90
51579;DHT22;47998;53.242;6.386;2022-08-19T12:23:08;26.50;99.90
51579;DHT22;47998;53.242;6.386;2022-08-19T12:25:43;26.40;99.90
51579;DHT22;47998;53.242;6.386;2022-08-19T12:28:22;26.30;99.90
51579;DHT22;47998;53.242;6.386;2022-08-19T12:30:49;26.10;99.90
51579;DHT22;47998;53.242;6.386;2022-08-19T12:33:19;26.00;1.00
51579;DHT22;47998;53.242;6.386;2022-08-19T12:35:49;25.70;1.00
51579;DHT22;47998;53.242;6.386;2022-08-19T12:38:16;25.40;1.00
51579;DHT22;47998;53.242;6.386;2022-08-19T12:40:48;25.20;1.00
51579;DHT22;47998;53.242;6.386;2022-08-19T12:43:16;24.90;99.90
51579;DHT22;47998;53.242;6.386;2022-08-19T12:45:42;24.70;99.90
51579;DHT22;47998;53.242;6.386;2022-08-19T12:48:09;24.50;99.90
51579;DHT22;47998;53.242;6.386;2022-08-19T12:50:34;24.40;99.90
51579;DHT22;47998;53.242;6.386;2022-08-19T12:53:00;24.20;14.00
51579;DHT22;47998;53.242;6.386;2022-08-19T12:55:26;23.90;99.90
51579;DHT22;47998;53.242;6.386;2022-08-19T12:57:53;23.70;99.90
51579;DHT22;47998;53.242;6.386;2022-08-19T13:00:21;23.60;1.00
51579;DHT22;47998;53.242;6.386;2022-08-19T13:02:50;23.50;1.00
51579;DHT22;47998;53.242;6.386;2022-08-19T13:05:22;23.60;1.00
51579;DHT22;47998;53.242;6.386;2022-08-19T13:07:51;23.50;1.00
51579;DHT22;47998;53.242;6.386;2022-08-19T13:10:19;23.20;1.00
51579;DHT22;47998;53.242;6.386;2022-08-19T13:12:47;22.90;1.00
51579;DHT22;47998;53.242;6.386;2022-08-19T13:15:17;22.70;99.90
51579;DHT22;47998;53.242;6.386;2022-08-19T13:17:49;22.40;99.90
51579;DHT22;47998;53.242;6.386;2022-08-19T13:20:17;22.30;99.90
51579;DHT22;47998;53.242;6.386;2022-08-19T13:22:47;22.00;1.00
51579;DHT22;47998;53.242;6.386;2022-08-19T13:25:13;22.00;1.00
51579;DHT22;47998;53.242;6.386;2022-08-19T13:27:41;21.80;1.00
51579;DHT22;47998;53.242;6.386;2022-08-19T13:30:09;21.70;1.00
51579;DHT22;47998;53.242;6.386;2022-08-19T13:32:54;21.60;1.00
51579;DHT22;47998;53.242;6.386;2022-08-19T13:38:06;21.60;78.10
51579;DHT22;47998;53.242;6.386;2022-08-19T13:40:33;21.70;6.40
51579;DHT22;47998;53.242;6.386;2022-08-19T13:43:00;21.90;82.60
51579;DHT22;47998;53.242;6.386;2022-08-19T13:45:28;22.10;99.20
51579;DHT22;47998;53.242;6.386;2022-08-19T13:47:56;22.40;80.00
51579;DHT22;47998;53.242;6.386;2022-08-19T13:50:25;22.60;1.00
51579;DHT22;47998;53.242;6.386;2022-08-19T13:52:51;22.80;99.90
51579;DHT22;47998;53.242;6.386;2022-08-19T13:55:17;22.80;99.90
51579;DHT22;47998;53.242;6.386;2022-08-19T13:57:43;22.90;99.90
51579;DHT22;47998;53.242;6.386;2022-08-19T14:00:13;23.00;99.90
51579;DHT22;47998;53.242;6.386;2022-08-19T14:02:39;23.00;99.90
51579;DHT22;47998;53.242;6.386;2022-08-19T14:05:09;23.20;99.90
51579;DHT22;47998;53.242;6.386;2022-08-19T14:07:35;23.30;99.90
51579;DHT22;47998;53.242;6.386;2022-08-19T14:10:03;23.60;99.90
51579;DHT22;47998;53.242;6.386;2022-08-19T14:12:31;24.00;99.90
51579;DHT22;47998;53.242;6.386;2022-08-19T14:14:58;24.40;1.00
51579;DHT22;47998;53.242;6.386;2022-08-19T14:17:23;24.70;1.00
51579;DHT22;47998;53.242;6.386;2022-08-19T14:20:00;24.60;99.90
51579;DHT22;47998;53.242;6.386;2022-08-19T14:22:32;24.40;1.00
51579;DHT22;47998;53.242;6.386;2022-08-19T14:24:58;24.20;1.00
51579;DHT22;47998;53.242;6.386;2022-08-19T14:27:24;24.10;51.70
51579;DHT22;47998;53.242;6.386;2022-08-19T14:29:51;24.00;99.90
51579;DHT22;47998;53.242;6.386;2022-08-19T14:32:20;23.80;99.90
51579;DHT22;47998;53.242;6.386;2022-08-19T14:34:47;23.80;99.90
51579;DHT22;47998;53.242;6.386;2022-08-19T14:37:13;23.70;99.90
51579;DHT22;47998;53.242;6.386;2022-08-19T14:39:43;24.00;99.90
51579;DHT22;47998;53.242;6.386;2022-08-19T14:42:11;24.20;99.90
51579;DHT22;47998;53.242;6.386;2022-08-19T14:44:37;24.20;99.90
51579;DHT22;47998;53.242;6.386;2022-08-19T14:47:04;24.30;99.90
51579;DHT22;47998;53.242;6.386;2022-08-19T14:49:32;24.50;94.10
51579;DHT22;47998;53.242;6.386;2022-08-19T14:51:58;24.60;5.80
51579;DHT22;47998;53.242;6.386;2022-08-19T14:54:24;24.60;99.90
51579;DHT22;47998;53.242;6.386;2022-08-19T14:56:50;24.90;99.90
51579;DHT22;47998;53.242;6.386;2022-08-19T14:59:16;25.60;99.90
51579;DHT22;47998;53.242;6.386;2022-08-19T15:01:42;26.40;51.20
51579;DHT22;47998;53.242;6.386;2022-08-19T15:04:07;26.70;1.00
51579;DHT22;47998;53.242;6.386;2022-08-19T15:06:33;26.30;99.90
51579;DHT22;47998;53.242;6.386;2022-08-19T15:08:59;25.90;1.00
51579;DHT22;47998;53.242;6.386;2022-08-19T15:11:27;26.00;1.00
51579;DHT22;47998;53.242;6.386;2022-08-19T15:13:55;26.10;1.00
51579;DHT22;47998;53.242;6.386;2022-08-19T15:16:23;26.20;1.00
51579;DHT22;47998;53.242;6.386;2022-08-19T15:18:53;26.20;99.90
51579;DHT22;47998;53.242;6.386;2022-08-19T15:21:20;26.00;99.90
51579;DHT22;47998;53.242;6.386;2022-08-19T15:23:49;26.00;1.00
51579;DHT22;47998;53.242;6.386;2022-08-19T15:26:17;26.20;99.90
51579;DHT22;47998;53.242;6.386;2022-08-19T15:28:44;26.20;99.90
51579;DHT22;47998;53.242;6.386;2022-08-19T15:31:11;26.00;99.90
51579;DHT22;47998;53.242;6.386;2022-08-19T15:33:38;25.80;1.00
51579;DHT22;47998;53.242;6.386;2022-08-19T15:36:07;25.80;1.00
51579;DHT22;47998;53.242;6.386;2022-08-19T15:38:34;25.90;1.00
51579;DHT22;47998;53.242;6.386;2022-08-19T15:41:03;26.00;1.00
51579;DHT22;47998;53.242;6.386;2022-08-19T15:43:50;26.40;1.00
51579;DHT22;47998;53.242;6.386;2022-08-19T15:46:21;26.40;99.90
51579;DHT22;47998;53.242;6.386;2022-08-19T15:48:48;26.10;99.90
51579;DHT22;47998;53.242;6.386;2022-08-19T15:51:15;25.70;99.90
51579;DHT22;47998;53.242;6.386;2022-08-19T15:53:41;25.40;1.00
51579;DHT22;47998;53.242;6.386;2022-08-19T15:56:08;25.10;2.80